sensor_id;sensor_type;location;lat;lon;timestamp;pressure;altitude;pressure_sealevel;temperature;humidity
32083;BME280;18597;48.328;7.932;2023-05-21T00:00:59;99043.56;;;14.18;100.00
32083;BME280;18597;48.328;7.932;2023-05-21T00:03:26;99047.25;;;14.17;100.00
32083;BME280;18597;48.328;7.932;2023-05-21T00:05:53;99049.59;;;14.12;100.00
32083;BME280;18597;48.328;7.932;2023-05-21T00:08:20;99045.59;;;14.24;100.00
32083;BME280;18597;48.328;7.932;2023-05-21T00:10:46;99050.44;;;14.12;100.00
32083;BME280;18597;48.328;7.932;2023-05-21T00:13:12;99042.06;;;14.07;100.00
32083;BME280;18597;48.328;7.932;2023-05-21T00:15:37;99044.94;;;14.06;100.00
32083;BME280;18597;48.328;7.932;2023-05-21T00:18:04;99042.75;;;14.01;100.00
32083;BME280;18597;48.328;7.932;2023-05-21T00:20:30;99035.34;;;13.87;100.00
32083;BME280;18597;48.328;7.932;2023-05-21T00:22:58;99038.69;;;13.81;100.00
32083;BME280;18597;48.328;7.932;2023-05-21T00:25:27;99042.38;;;13.72;100.00
32083;BME280;18597;48.328;7.932;2023-05-21T00:27:54;99042.34;;;13.64;100.00
32083;BME280;18597;48.328;7.932;2023-05-21T00:30:20;99036.16;;;13.63;100.00
32083;BME280;18597;48.328;7.932;2023-05-21T00:32:46;99040.31;;;13.57;100.00
32083;BME280;18597;48.328;7.932;2023-05-21T00:35:12;99045.22;;;13.62;100.00
32083;BME280;18597;48.328;7.932;2023-05-21T00:37:38;99041.69;;;13.53;100.00
32083;BME280;18597;48.328;7.932;2023-05-21T00:40:05;99048.00;;;13.44;100.00
32083;BME280;18597;48.328;7.932;2023-05-21T00:42:33;99039.47;;;13.41;100.00
32083;BME280;18597;48.328;7.932;2023-05-21T00:45:05;99042.63;;;13.36;100.00
32083;BME280;18597;48.328;7.932;2023-05-21T00:47:33;99036.94;;;13.39;100.00
32083;BME280;18597;48.328;7.932;2023-05-21T00:50:00;99042.13;;;13.32;100.00
32083;BME280;18597;48.328;7.932;2023-05-21T00:52:26;99036.75;;;13.32;100.00
32083;BME280;18597;48.328;7.932;2023-05-21T00:54:53;99030.84;;;13.29;100.00
32083;BME280;18597;48.328;7.932;2023-05-21T00:57:19;99037.56;;;13.25;100.00
32083;BME280;18597;48.328;7.932;2023-05-21T00:59:49;99025.81;;;13.26;100.00
32083;BME280;18597;48.328;7.932;2023-05-21T01:02:16;99024.81;;;13.27;100.00
32083;BME280;18597;48.328;7.932;2023-05-21T01:04:44;99029.81;;;13.22;100.00
32083;BME280;18597;48.328;7.932;2023-05-21T01:07:11;99022.78;;;13.21;100.00
32083;BME280;18597;48.328;7.932;2023-05-21T01:09:38;99030.34;;;13.25;100.00
32083;BME280;18597;48.328;7.932;2023-05-21T01:12:05;99020.81;;;13.23;100.00
32083;BME280;18597;48.328;7.932;2023-05-21T01:14:31;99028.69;;;13.24;100.00
32083;BME280;18597;48.328;7.932;2023-05-21T01:16:59;99019.78;;;13.24;100.00
32083;BME280;18597;48.328;7.932;2023-05-21T01:19:27;99027.22;;;13.38;100.00
32083;BME280;18597;48.328;7.932;2023-05-21T01:22:02;99033.75;;;13.52;100.00
32083;BME280;18597;48.328;7.932;2023-05-21T01:24:29;99028.91;;;13.39;100.00
32083;BME280;18597;48.328;7.932;2023-05-21T01:26:55;99023.84;;;13.44;100.00
32083;BME280;18597;48.328;7.932;2023-05-21T01:29:20;99024.84;;;13.35;100.00
32083;BME280;18597;48.328;7.932;2023-05-21T01:32:18;99024.53;;;13.38;100.00
32083;BME280;18597;48.328;7.932;2023-05-21T01:35:12;99028.69;;;13.24;100.00
32083;BME280;18597;48.328;7.932;2023-05-21T01:37:48;99020.25;;;13.19;100.00
32083;BME280;18597;48.328;7.932;2023-05-21T01:40:31;99024.91;;;13.09;100.00
32083;BME280;18597;48.328;7.932;2023-05-21T01:42:59;99009.47;;;13.03;100.00
32083;BME280;18597;48.328;7.932;2023-05-21T01:45:27;99011.59;;;12.99;100.00
32083;BME280;18597;48.328;7.932;2023-05-21T01:47:56;99012.28;;;12.93;100.00
32083;BME280;18597;48.328;7.932;2023-05-21T01:50:23;99015.44;;;12.89;100.00
32083;BME280;18597;48.328;7.932;2023-05-21T01:52:52;99012.25;;;12.85;100.00
32083;BME280;18597;48.328;7.932;2023-05-21T01:55:19;99013.38;;;12.83;100.00
32083;BME280;18597;48.328;7.932;2023-05-21T01:57:51;99014.84;;;12.77;100.00
32083;BME280;18597;48.328;7.932;2023-05-21T02:00:19;99014.84;;;12.77;100.00
32083;BME280;18597;48.328;7.932;2023-05-21T02:02:45;99012.13;;;12.69;100.00
32083;BME280;18597;48.328;7.932;2023-05-21T02:05:11;99011.81;;;12.64;100.00
32083;BME280;18597;48.328;7.932;2023-05-21T02:07:37;99012.25;;;12.59;100.00
32083;BME280;18597;48.328;7.932;2023-05-21T02:10:05;99009.22;;;12.54;100.00
32083;BME280;18597;48.328;7.932;2023-05-21T02:12:32;99007.88;;;12.50;100.00
32083;BME280;18597;48.328;7.932;2023-05-21T02:14:58;99003.97;;;12.44;100.00
32083;BME280;18597;48.328;7.932;2023-05-21T02:17:24;99011.34;;;12.42;100.00
32083;BME280;18597;48.328;7.932;2023-05-21T02:19:51;99016.69;;;12.42;100.00
32083;BME280;18597;48.328;7.932;2023-05-21T02:22:16;99008.81;;;12.41;100.00
32083;BME280;18597;48.328;7.932;2023-05-21T02:24:42;99006.44;;;12.38;100.00
32083;BME280;18597;48.328;7.932;2023-05-21T02:27:08;99016.03;;;12.40;100.00
32083;BME280;18597;48.328;7.932;2023-05-21T02:29:38;99013.34;;;12.40;100.00
32083;BME280;18597;48.328;7.932;2023-05-21T02:32:04;99008.13;;;12.39;100.00
32083;BME280;18597;48.328;7.932;2023-05-21T02:34:30;99013.47;;;12.39;100.00
32083;BME280;18597;48.328;7.932;2023-05-21T02:36:57;99004.72;;;12.55;100.00
32083;BME280;18597;48.328;7.932;2023-05-21T02:39:23;99004.47;;;12.74;100.00
32083;BME280;18597;48.328;7.932;2023-05-21T02:41:49;98993.38;;;12.69;100.00
32083;BME280;18597;48.328;7.932;2023-05-21T02:44:15;99000.19;;;12.55;100.00
32083;BME280;18597;48.328;7.932;2023-05-21T02:46:43;99000.84;;;12.49;100.00
32083;BME280;18597;48.328;7.932;2023-05-21T02:49:09;98995.25;;;12.42;100.00
32083;BME280;18597;48.328;7.932;2023-05-21T02:51:35;98987.56;;;12.39;100.00
32083;BME280;18597;48.328;7.932;2023-05-21T02:54:01;98998.09;;;12.41;100.00
32083;BME280;18597;48.328;7.932;2023-05-21T02:56:26;98993.06;;;12.38;100.00
32083;BME280;18597;48.328;7.932;2023-05-21T02:58:52;98994.72;;;12.39;100.00
32083;BME280;18597;48.328;7.932;2023-05-21T03:01:19;99001.91;;;12.38;100.00
32083;BME280;18597;48.328;7.932;2023-05-21T03:03:44;98998.63;;;12.44;100.00
32083;BME280;18597;48.328;7.932;2023-05-21T03:06:10;98997.69;;;12.28;100.00
32083;BME280;18597;48.328;7.932;2023-05-21T03:08:36;98992.09;;;12.21;100.00
32083;BME280;18597;48.328;7.932;2023-05-21T03:11:02;98996.13;;;12.17;100.00
32083;BME280;18597;48.328;7.932;2023-05-21T03:13:29;98995.56;;;12.13;100.00
32083;BME280;18597;48.328;7.932;2023-05-21T03:15:55;99000.41;;;12.10;100.00
32083;BME280;18597;48.328;7.932;2023-05-21T03:18:22;99003.59;;;12.13;100.00
32083;BME280;18597;48.328;7.932;2023-05-21T03:20:48;99006.22;;;12.31;100.00
32083;BME280;18597;48.328;7.932;2023-05-21T03:23:14;98996.97;;;12.17;100.00
32083;BME280;18597;48.328;7.932;2023-05-21T03:25:40;99000.25;;;12.11;100.00
32083;BME280;18597;48.328;7.932;2023-05-21T03:28:07;99010.97;;;12.11;100.00
32083;BME280;18597;48.328;7.932;2023-05-21T03:30:35;99013.94;;;12.08;100.00
32083;BME280;18597;48.328;7.932;2023-05-21T03:33:01;99020.88;;;12.19;100.00
32083;BME280;18597;48.328;7.932;2023-05-21T03:35:28;99024.34;;;12.11;100.00
32083;BME280;18597;48.328;7.932;2023-05-21T03:37:53;99022.97;;;12.07;100.00
32083;BME280;18597;48.328;7.932;2023-05-21T03:40:19;99021.66;;;12.11;100.00
32083;BME280;18597;48.328;7.932;2023-05-21T03:42:46;99021.97;;;12.08;100.00
32083;BME280;18597;48.328;7.932;2023-05-21T03:45:12;99023.81;;;12.08;100.00
32083;BME280;18597;48.328;7.932;2023-05-21T03:47:38;99024.63;;;12.08;100.00
32083;BME280;18597;48.328;7.932;2023-05-21T03:50:06;99036.50;;;12.06;100.00
32083;BME280;18597;48.328;7.932;2023-05-21T03:52:33;99026.63;;;12.06;100.00
32083;BME280;18597;48.328;7.932;2023-05-21T03:54:59;99032.53;;;12.10;100.00
32083;BME280;18597;48.328;7.932;2023-05-21T03:57:25;99029.03;;;12.09;100.00
32083;BME280;18597;48.328;7.932;2023-05-21T03:59:51;99040.09;;;12.14;100.00
32083;BME280;18597;48.328;7.932;2023-05-21T04:02:16;99038.00;;;12.26;100.00
32083;BME280;18597;48.328;7.932;2023-05-21T04:04:42;99040.16;;;12.22;100.00
32083;BME280;18597;48.328;7.932;2023-05-21T04:07:09;99043.44;;;12.34;100.00
32083;BME280;18597;48.328;7.932;2023-05-21T04:09:40;99047.78;;;12.35;100.00
32083;BME280;18597;48.328;7.932;2023-05-21T04:12:06;99052.78;;;12.56;100.00
32083;BME280;18597;48.328;7.932;2023-05-21T04:14:33;99049.22;;;12.47;100.00
32083;BME280;18597;48.328;7.932;2023-05-21T04:16:58;99052.34;;;12.43;100.00
32083;BME280;18597;48.328;7.932;2023-05-21T04:19:24;99056.88;;;12.42;100.00
32083;BME280;18597;48.328;7.932;2023-05-21T04:21:50;99052.25;;;12.53;100.00
32083;BME280;18597;48.328;7.932;2023-05-21T04:24:16;99058.59;;;12.52;100.00
32083;BME280;18597;48.328;7.932;2023-05-21T04:26:42;99057.44;;;12.54;100.00
32083;BME280;18597;48.328;7.932;2023-05-21T04:29:09;99065.84;;;12.59;100.00
32083;BME280;18597;48.328;7.932;2023-05-21T04:31:34;99065.06;;;12.67;100.00
32083;BME280;18597;48.328;7.932;2023-05-21T04:34:00;99065.28;;;12.73;100.00
32083;BME280;18597;48.328;7.932;2023-05-21T04:36:26;99064.66;;;12.80;100.00
32083;BME280;18597;48.328;7.932;2023-05-21T04:38:53;99064.84;;;12.86;100.00
32083;BME280;18597;48.328;7.932;2023-05-21T04:41:20;99071.94;;;12.95;100.00
32083;BME280;18597;48.328;7.932;2023-05-21T04:43:46;99072.00;;;13.12;100.00
32083;BME280;18597;48.328;7.932;2023-05-21T04:46:12;99067.38;;;13.22;100.00
32083;BME280;18597;48.328;7.932;2023-05-21T04:48:38;99073.94;;;13.27;100.00
32083;BME280;18597;48.328;7.932;2023-05-21T04:51:05;99061.09;;;13.39;100.00
32083;BME280;18597;48.328;7.932;2023-05-21T04:53:31;99065.66;;;13.55;100.00
32083;BME280;18597;48.328;7.932;2023-05-21T04:55:58;99065.34;;;13.66;100.00
32083;BME280;18597;48.328;7.932;2023-05-21T04:58:24;99069.22;;;13.80;100.00
32083;BME280;18597;48.328;7.932;2023-05-21T05:00:50;99071.09;;;13.96;100.00
32083;BME280;18597;48.328;7.932;2023-05-21T05:03:18;99077.66;;;14.09;100.00
32083;BME280;18597;48.328;7.932;2023-05-21T05:05:43;99067.75;;;14.18;100.00
32083;BME280;18597;48.328;7.932;2023-05-21T05:08:10;99071.25;;;14.35;100.00
32083;BME280;18597;48.328;7.932;2023-05-21T05:10:36;99063.19;;;14.43;100.00
32083;BME280;18597;48.328;7.932;2023-05-21T05:13:01;99073.81;;;14.61;100.00
32083;BME280;18597;48.328;7.932;2023-05-21T05:15:27;99061.34;;;14.76;100.00
32083;BME280;18597;48.328;7.932;2023-05-21T05:17:53;99062.47;;;14.98;100.00
32083;BME280;18597;48.328;7.932;2023-05-21T05:20:19;99069.31;;;15.09;100.00
32083;BME280;18597;48.328;7.932;2023-05-21T05:22:45;99062.75;;;15.03;100.00
32083;BME280;18597;48.328;7.932;2023-05-21T05:25:11;99070.94;;;15.18;100.00
32083;BME280;18597;48.328;7.932;2023-05-21T05:27:36;99064.97;;;15.39;100.00
32083;BME280;18597;48.328;7.932;2023-05-21T05:30:02;99070.50;;;15.76;100.00
32083;BME280;18597;48.328;7.932;2023-05-21T05:32:28;99057.88;;;16.00;100.00
32083;BME280;18597;48.328;7.932;2023-05-21T05:34:54;99057.38;;;16.04;100.00
32083;BME280;18597;48.328;7.932;2023-05-21T05:37:20;99066.59;;;16.48;100.00
32083;BME280;18597;48.328;7.932;2023-05-21T05:39:46;99062.03;;;17.01;100.00
32083;BME280;18597;48.328;7.932;2023-05-21T05:42:11;99062.16;;;17.58;100.00
32083;BME280;18597;48.328;7.932;2023-05-21T05:44:37;99059.59;;;18.29;100.00
32083;BME280;18597;48.328;7.932;2023-05-21T05:47:03;99063.69;;;19.02;94.93
32083;BME280;18597;48.328;7.932;2023-05-21T05:49:33;99053.63;;;19.79;85.84
32083;BME280;18597;48.328;7.932;2023-05-21T05:51:59;99056.41;;;20.25;80.76
32083;BME280;18597;48.328;7.932;2023-05-21T05:54:25;99054.72;;;21.03;75.19
32083;BME280;18597;48.328;7.932;2023-05-21T05:56:51;99053.50;;;21.64;70.55
32083;BME280;18597;48.328;7.932;2023-05-21T05:59:17;99046.72;;;22.43;64.59
32083;BME280;18597;48.328;7.932;2023-05-21T06:01:43;99057.19;;;23.51;56.68
32083;BME280;18597;48.328;7.932;2023-05-21T06:04:08;99046.19;;;24.95;51.15
32083;BME280;18597;48.328;7.932;2023-05-21T06:06:34;99039.94;;;26.32;46.77
32083;BME280;18597;48.328;7.932;2023-05-21T06:09:01;99045.22;;;27.22;43.87
32083;BME280;18597;48.328;7.932;2023-05-21T06:11:28;99042.28;;;27.73;42.43
32083;BME280;18597;48.328;7.932;2023-05-21T06:13:53;99035.88;;;28.16;41.49
32083;BME280;18597;48.328;7.932;2023-05-21T06:16:19;99034.94;;;29.01;39.81
32083;BME280;18597;48.328;7.932;2023-05-21T06:18:45;99034.78;;;29.71;37.76
32083;BME280;18597;48.328;7.932;2023-05-21T06:21:11;99032.16;;;30.62;36.17
32083;BME280;18597;48.328;7.932;2023-05-21T06:23:36;99029.88;;;31.26;34.83
32083;BME280;18597;48.328;7.932;2023-05-21T06:26:03;99029.00;;;31.95;33.58
32083;BME280;18597;48.328;7.932;2023-05-21T06:28:29;99028.16;;;32.73;32.34
32083;BME280;18597;48.328;7.932;2023-05-21T06:30:55;99025.59;;;33.34;31.14
32083;BME280;18597;48.328;7.932;2023-05-21T06:33:21;99021.94;;;33.82;30.73
32083;BME280;18597;48.328;7.932;2023-05-21T06:35:47;99023.63;;;34.02;29.63
32083;BME280;18597;48.328;7.932;2023-05-21T06:38:13;99027.66;;;33.90;30.17
32083;BME280;18597;48.328;7.932;2023-05-21T06:40:39;99025.47;;;33.87;30.14
32083;BME280;18597;48.328;7.932;2023-05-21T06:43:04;99020.03;;;33.77;29.88
32083;BME280;18597;48.328;7.932;2023-05-21T06:45:30;99025.16;;;33.22;30.91
32083;BME280;18597;48.328;7.932;2023-05-21T06:47:56;99016.84;;;32.98;30.96
32083;BME280;18597;48.328;7.932;2023-05-21T06:50:22;99012.00;;;32.85;31.17
32083;BME280;18597;48.328;7.932;2023-05-21T06:52:48;99021.66;;;32.58;31.75
32083;BME280;18597;48.328;7.932;2023-05-21T06:55:14;99016.28;;;32.38;32.04
32083;BME280;18597;48.328;7.932;2023-05-21T06:57:40;99020.38;;;31.52;33.25
32083;BME280;18597;48.328;7.932;2023-05-21T07:00:06;99023.88;;;30.73;34.56
32083;BME280;18597;48.328;7.932;2023-05-21T07:02:33;99023.53;;;29.88;35.89
32083;BME280;18597;48.328;7.932;2023-05-21T07:04:59;99021.25;;;28.64;38.28
32083;BME280;18597;48.328;7.932;2023-05-21T07:07:25;99036.41;;;27.64;39.87
32083;BME280;18597;48.328;7.932;2023-05-21T07:09:51;99034.31;;;26.72;42.19
32083;BME280;18597;48.328;7.932;2023-05-21T07:12:17;99036.16;;;26.04;43.80
32083;BME280;18597;48.328;7.932;2023-05-21T07:14:43;99033.22;;;25.65;45.21
32083;BME280;18597;48.328;7.932;2023-05-21T07:17:09;99032.44;;;26.10;45.13
32083;BME280;18597;48.328;7.932;2023-05-21T07:19:35;99035.50;;;26.76;43.53
32083;BME280;18597;48.328;7.932;2023-05-21T07:22:03;99032.94;;;26.69;43.59
32083;BME280;18597;48.328;7.932;2023-05-21T07:24:29;99030.53;;;25.94;45.38
32083;BME280;18597;48.328;7.932;2023-05-21T07:26:55;99031.50;;;25.88;45.82
32083;BME280;18597;48.328;7.932;2023-05-21T07:29:21;99037.19;;;26.15;45.44
32083;BME280;18597;48.328;7.932;2023-05-21T07:31:47;99033.34;;;26.61;44.01
32083;BME280;18597;48.328;7.932;2023-05-21T07:34:13;99036.09;;;27.17;43.21
32083;BME280;18597;48.328;7.932;2023-05-21T07:36:38;99024.97;;;28.21;41.06
32083;BME280;18597;48.328;7.932;2023-05-21T07:39:04;99026.91;;;30.25;37.18
32083;BME280;18597;48.328;7.932;2023-05-21T07:41:30;99036.56;;;32.18;33.72
32083;BME280;18597;48.328;7.932;2023-05-21T07:43:57;99021.75;;;33.54;31.88
32083;BME280;18597;48.328;7.932;2023-05-21T07:46:23;99025.03;;;34.83;29.71
32083;BME280;18597;48.328;7.932;2023-05-21T07:48:48;99030.50;;;34.88;29.22
32083;BME280;18597;48.328;7.932;2023-05-21T07:51:14;99023.56;;;34.58;29.63
32083;BME280;18597;48.328;7.932;2023-05-21T07:53:41;99018.31;;;35.72;28.32
32083;BME280;18597;48.328;7.932;2023-05-21T07:56:06;99012.97;;;37.01;26.50
32083;BME280;18597;48.328;7.932;2023-05-21T07:58:32;99009.41;;;37.49;25.33
32083;BME280;18597;48.328;7.932;2023-05-21T08:00:59;99007.06;;;38.25;24.69
32083;BME280;18597;48.328;7.932;2023-05-21T08:03:26;99003.25;;;39.20;23.85
32083;BME280;18597;48.328;7.932;2023-05-21T08:05:55;99002.59;;;40.90;21.58
32083;BME280;18597;48.328;7.932;2023-05-21T08:08:21;99005.44;;;40.36;21.96
32083;BME280;18597;48.328;7.932;2023-05-21T08:10:48;98998.97;;;40.03;22.45
32083;BME280;18597;48.328;7.932;2023-05-21T08:13:15;98994.94;;;41.36;21.49
32083;BME280;18597;48.328;7.932;2023-05-21T08:15:41;98991.41;;;41.76;20.62
32083;BME280;18597;48.328;7.932;2023-05-21T08:18:07;98992.22;;;41.27;21.06
32083;BME280;18597;48.328;7.932;2023-05-21T08:20:33;98986.84;;;40.98;21.41
32083;BME280;18597;48.328;7.932;2023-05-21T08:22:59;98986.81;;;41.71;21.08
32083;BME280;18597;48.328;7.932;2023-05-21T08:25:26;98983.91;;;41.68;20.90
32083;BME280;18597;48.328;7.932;2023-05-21T08:27:52;98984.41;;;41.09;21.24
32083;BME280;18597;48.328;7.932;2023-05-21T08:30:18;98986.06;;;40.64;21.59
32083;BME280;18597;48.328;7.932;2023-05-21T08:32:44;98974.19;;;39.42;23.07
32083;BME280;18597;48.328;7.932;2023-05-21T08:35:10;98980.41;;;38.54;23.76
32083;BME280;18597;48.328;7.932;2023-05-21T08:37:36;98979.25;;;37.60;25.14
32083;BME280;18597;48.328;7.932;2023-05-21T08:40:02;98976.47;;;36.49;26.17
32083;BME280;18597;48.328;7.932;2023-05-21T08:45:11;98969.06;;;33.41;30.21
32083;BME280;18597;48.328;7.932;2023-05-21T08:47:41;98972.88;;;31.50;33.32
32083;BME280;18597;48.328;7.932;2023-05-21T08:50:11;98979.94;;;31.71;33.30
32083;BME280;18597;48.328;7.932;2023-05-21T08:52:38;98971.28;;;33.38;31.05
32083;BME280;18597;48.328;7.932;2023-05-21T08:55:04;98971.72;;;34.72;29.14
32083;BME280;18597;48.328;7.932;2023-05-21T08:57:31;98976.28;;;35.23;28.66
32083;BME280;18597;48.328;7.932;2023-05-21T08:59:58;98977.63;;;35.40;28.37
32083;BME280;18597;48.328;7.932;2023-05-21T09:02:24;98984.00;;;35.13;28.66
32083;BME280;18597;48.328;7.932;2023-05-21T09:04:52;98974.66;;;34.95;29.17
32083;BME280;18597;48.328;7.932;2023-05-21T09:07:24;98976.53;;;34.34;29.66
32083;BME280;18597;48.328;7.932;2023-05-21T09:09:59;98980.22;;;33.30;30.96
32083;BME280;18597;48.328;7.932;2023-05-21T09:12:28;98986.22;;;31.38;34.19
32083;BME280;18597;48.328;7.932;2023-05-21T09:14:54;98975.66;;;30.34;35.92
32083;BME280;18597;48.328;7.932;2023-05-21T09:17:23;98966.97;;;29.49;37.91
32083;BME280;18597;48.328;7.932;2023-05-21T09:20:12;98971.25;;;28.72;39.80
32083;BME280;18597;48.328;7.932;2023-05-21T09:22:46;98969.47;;;28.19;40.96
32083;BME280;18597;48.328;7.932;2023-05-21T09:25:16;98971.91;;;27.61;42.22
32083;BME280;18597;48.328;7.932;2023-05-21T09:27:42;98978.69;;;27.10;44.02
32083;BME280;18597;48.328;7.932;2023-05-21T09:30:11;98987.06;;;26.81;45.32
32083;BME280;18597;48.328;7.932;2023-05-21T09:32:39;98982.19;;;26.50;45.95
32083;BME280;18597;48.328;7.932;2023-05-21T09:35:12;98983.09;;;26.22;46.77
32083;BME280;18597;48.328;7.932;2023-05-21T09:37:41;98970.91;;;26.13;48.31
32083;BME280;18597;48.328;7.932;2023-05-21T09:40:16;98981.19;;;26.06;48.75
32083;BME280;18597;48.328;7.932;2023-05-21T09:42:46;98985.34;;;26.08;49.76
32083;BME280;18597;48.328;7.932;2023-05-21T09:47:55;98978.38;;;26.17;50.90
32083;BME280;18597;48.328;7.932;2023-05-21T09:50:24;98977.53;;;26.17;50.15
32083;BME280;18597;48.328;7.932;2023-05-21T09:52:53;98983.16;;;25.93;50.28
32083;BME280;18597;48.328;7.932;2023-05-21T09:55:24;98983.13;;;25.48;51.35
32083;BME280;18597;48.328;7.932;2023-05-21T09:57:52;98987.53;;;25.37;53.66
32083;BME280;18597;48.328;7.932;2023-05-21T10:00:23;98984.41;;;25.45;54.94
32083;BME280;18597;48.328;7.932;2023-05-21T10:02:56;98976.31;;;25.51;54.45
32083;BME280;18597;48.328;7.932;2023-05-21T10:05:27;98973.34;;;25.52;51.44
32083;BME280;18597;48.328;7.932;2023-05-21T10:07:59;98964.75;;;25.32;52.17
32083;BME280;18597;48.328;7.932;2023-05-21T10:10:29;98979.97;;;25.28;53.32
32083;BME280;18597;48.328;7.932;2023-05-21T10:13:02;98970.88;;;25.39;53.85
32083;BME280;18597;48.328;7.932;2023-05-21T10:15:34;98968.00;;;25.17;52.56
32083;BME280;18597;48.328;7.932;2023-05-21T10:18:02;98964.31;;;25.00;54.50
32083;BME280;18597;48.328;7.932;2023-05-21T10:20:29;98964.09;;;25.13;56.12
32083;BME280;18597;48.328;7.932;2023-05-21T10:22:57;98960.03;;;25.15;54.38
32083;BME280;18597;48.328;7.932;2023-05-21T10:25:24;98956.47;;;25.15;53.84
32083;BME280;18597;48.328;7.932;2023-05-21T10:27:52;98962.81;;;25.04;54.15
32083;BME280;18597;48.328;7.932;2023-05-21T10:30:20;98954.69;;;24.97;53.20
32083;BME280;18597;48.328;7.932;2023-05-21T10:32:49;98953.50;;;24.93;53.36
32083;BME280;18597;48.328;7.932;2023-05-21T10:35:16;98954.38;;;24.82;55.47
32083;BME280;18597;48.328;7.932;2023-05-21T10:37:43;98948.53;;;24.78;56.86
32083;BME280;18597;48.328;7.932;2023-05-21T10:40:11;98941.41;;;24.89;57.59
32083;BME280;18597;48.328;7.932;2023-05-21T10:43:59;98952.97;;;24.79;58.71
32083;BME280;18597;48.328;7.932;2023-05-21T10:46:44;98948.41;;;24.85;56.95
32083;BME280;18597;48.328;7.932;2023-05-21T10:49:40;98950.78;;;24.93;57.14
32083;BME280;18597;48.328;7.932;2023-05-21T10:55:31;98949.72;;;24.94;55.80
32083;BME280;18597;48.328;7.932;2023-05-21T11:01:14;98947.34;;;24.86;57.38
32083;BME280;18597;48.328;7.932;2023-05-21T11:03:43;98943.44;;;25.05;57.02
32083;BME280;18597;48.328;7.932;2023-05-21T11:06:10;98946.44;;;24.80;56.80
32083;BME280;18597;48.328;7.932;2023-05-21T11:08:46;98939.84;;;24.93;56.54
32083;BME280;18597;48.328;7.932;2023-05-21T11:11:12;98944.47;;;24.92;56.88
32083;BME280;18597;48.328;7.932;2023-05-21T11:13:51;98937.28;;;24.86;55.98
32083;BME280;18597;48.328;7.932;2023-05-21T11:16:17;98934.50;;;24.98;57.13
32083;BME280;18597;48.328;7.932;2023-05-21T11:21:29;98935.25;;;25.34;57.50
32083;BME280;18597;48.328;7.932;2023-05-21T11:24:00;98938.03;;;25.51;55.40
32083;BME280;18597;48.328;7.932;2023-05-21T11:29:35;98927.94;;;25.68;54.04
32083;BME280;18597;48.328;7.932;2023-05-21T11:32:06;98927.88;;;25.63;51.93
32083;BME280;18597;48.328;7.932;2023-05-21T11:34:43;98929.19;;;25.60;51.28
32083;BME280;18597;48.328;7.932;2023-05-21T11:39:54;98920.28;;;25.53;52.64
32083;BME280;18597;48.328;7.932;2023-05-21T11:45:04;98924.84;;;25.76;52.35
32083;BME280;18597;48.328;7.932;2023-05-21T11:47:31;98924.34;;;25.79;51.25
32083;BME280;18597;48.328;7.932;2023-05-21T11:50:01;98922.34;;;25.75;51.28
32083;BME280;18597;48.328;7.932;2023-05-21T11:52:29;98918.56;;;25.47;52.04
32083;BME280;18597;48.328;7.932;2023-05-21T11:54:56;98919.22;;;25.54;52.29
32083;BME280;18597;48.328;7.932;2023-05-21T11:57:27;98918.28;;;25.32;53.80
32083;BME280;18597;48.328;7.932;2023-05-21T11:59:57;98917.28;;;25.38;54.29
32083;BME280;18597;48.328;7.932;2023-05-21T12:02:26;98917.41;;;25.31;54.63
32083;BME280;18597;48.328;7.932;2023-05-21T12:04:53;98911.38;;;25.29;56.34
32083;BME280;18597;48.328;7.932;2023-05-21T12:07:19;98917.94;;;25.45;55.32
32083;BME280;18597;48.328;7.932;2023-05-21T12:09:50;98932.59;;;25.39;54.06
32083;BME280;18597;48.328;7.932;2023-05-21T12:12:18;98923.81;;;25.37;54.15
32083;BME280;18597;48.328;7.932;2023-05-21T12:14:46;98925.91;;;25.46;53.67
32083;BME280;18597;48.328;7.932;2023-05-21T12:17:15;98916.16;;;25.51;54.96
32083;BME280;18597;48.328;7.932;2023-05-21T12:19:42;98919.03;;;25.44;54.94
32083;BME280;18597;48.328;7.932;2023-05-21T12:22:09;98917.91;;;25.57;55.84
32083;BME280;18597;48.328;7.932;2023-05-21T12:24:36;98918.44;;;25.70;54.65
32083;BME280;18597;48.328;7.932;2023-05-21T12:27:06;98907.94;;;25.79;54.96
32083;BME280;18597;48.328;7.932;2023-05-21T12:29:36;98912.34;;;25.97;54.77
32083;BME280;18597;48.328;7.932;2023-05-21T12:32:06;98908.44;;;26.10;53.16
32083;BME280;18597;48.328;7.932;2023-05-21T12:34:51;98911.75;;;26.12;52.43
32083;BME280;18597;48.328;7.932;2023-05-21T12:37:25;98899.81;;;26.18;51.20
32083;BME280;18597;48.328;7.932;2023-05-21T12:39:55;98904.56;;;26.22;51.29
32083;BME280;18597;48.328;7.932;2023-05-21T12:42:31;98905.53;;;26.16;52.63
32083;BME280;18597;48.328;7.932;2023-05-21T12:45:04;98900.13;;;26.21;53.69
32083;BME280;18597;48.328;7.932;2023-05-21T12:47:30;98909.59;;;26.31;52.30
32083;BME280;18597;48.328;7.932;2023-05-21T12:49:59;98904.13;;;26.31;51.55
32083;BME280;18597;48.328;7.932;2023-05-21T12:52:26;98907.13;;;26.46;51.23
32083;BME280;18597;48.328;7.932;2023-05-21T12:54:54;98906.84;;;26.47;51.48
32083;BME280;18597;48.328;7.932;2023-05-21T12:57:25;98903.75;;;26.61;50.70
32083;BME280;18597;48.328;7.932;2023-05-21T12:59:55;98907.75;;;26.75;50.62
32083;BME280;18597;48.328;7.932;2023-05-21T13:02:30;98909.22;;;26.82;49.58
32083;BME280;18597;48.328;7.932;2023-05-21T13:05:02;98921.28;;;26.81;50.03
32083;BME280;18597;48.328;7.932;2023-05-21T13:07:30;98914.09;;;26.75;49.67
32083;BME280;18597;48.328;7.932;2023-05-21T13:09:57;98911.59;;;26.96;49.24
32083;BME280;18597;48.328;7.932;2023-05-21T13:12:25;98911.38;;;27.19;49.37
32083;BME280;18597;48.328;7.932;2023-05-21T13:14:54;98913.72;;;27.10;48.16
32083;BME280;18597;48.328;7.932;2023-05-21T13:17:21;98913.53;;;27.17;49.02
32083;BME280;18597;48.328;7.932;2023-05-21T13:20:12;98907.53;;;27.20;49.14
32083;BME280;18597;48.328;7.932;2023-05-21T13:22:42;98895.97;;;27.40;47.90